Time;durP1;ratioP1;P1;durP2;ratioP2;P2;SDS_P1;SDS_P2;PMS_P1;PMS_P2;Temp;Humidity;BMP_temperature;BMP_pressure;BME280_temperature;BME280_humidity;BME280_pressure;Samples;Min_cycle;Max_cycle;Signal;HPM_P1;HPM_P2
2023/07/05 00:01:30;;;;;;;18.55;10.52;;;17.80;99.90;;;;;;4966091;28;20492;-92
2023/07/05 00:03:56;;;;;;;18.58;11.32;;;17.80;99.90;;;;;;4965437;28;20492;-92
2023/07/05 00:06:22;;;;;;;18.98;11.95;;;17.70;99.90;;;;;;4983045;28;20354;-92
2023/07/05 00:08:48;;;;;;;20.20;11.73;;;17.60;99.90;;;;;;4966228;28;20030;-92
2023/07/05 00:11:14;;;;;;;17.98;11.02;;;17.60;99.90;;;;;;4981850;28;20027;-92
2023/07/05 00:13:40;;;;;;;18.60;11.63;;;17.50;99.90;;;;;;4986185;28;20026;-91
2023/07/05 00:16:06;;;;;;;17.88;12.43;;;17.50;99.90;;;;;;4981243;28;20027;-91
2023/07/05 00:18:32;;;;;;;23.02;12.70;;;17.50;99.90;;;;;;4981486;28;20080;-91
2023/07/05 00:21:03;;;;;;;19.95;12.13;;;17.50;99.90;;;;;;4981509;28;20022;-91
2023/07/05 00:23:31;;;;;;;22.63;12.88;;;17.50;99.90;;;;;;4981496;28;20025;-89
2023/07/05 00:25:56;;;;;;;22.92;12.30;;;17.50;99.90;;;;;;4981112;28;20018;-90
2023/07/05 00:28:23;;;;;;;19.67;12.68;;;17.40;99.90;;;;;;4982324;28;20030;-91
2023/07/05 00:30:49;;;;;;;19.60;12.27;;;17.50;99.90;;;;;;4981857;28;20488;-90
2023/07/05 00:33:15;;;;;;;19.88;10.80;;;17.40;99.90;;;;;;4982202;28;20078;-90
2023/07/05 00:35:52;;;;;;;16.98;10.35;;;17.40;99.90;;;;;;4981571;28;20022;-91
2023/07/05 00:38:19;;;;;;;20.83;11.57;;;17.40;99.90;;;;;;4982251;28;20034;-91
2023/07/05 00:40:46;;;;;;;21.45;11.10;;;17.40;99.90;;;;;;4980676;28;20073;-90
2023/07/05 00:43:13;;;;;;;17.38;10.20;;;17.30;99.90;;;;;;4982277;28;20022;-94
2023/07/05 00:45:53;;;;;;;16.60;9.80;;;17.40;99.90;;;;;;4982210;28;20441;-94
2023/07/05 00:48:23;;;;;;;13.93;9.23;;;17.40;99.90;;;;;;4981831;28;20033;-94
2023/07/05 00:50:52;;;;;;;16.63;9.73;;;17.30;99.90;;;;;;4982151;28;20022;-96
2023/07/05 00:53:19;;;;;;;16.20;8.30;;;17.30;99.90;;;;;;4982511;28;20026;-94
2023/07/05 00:55:55;;;;;;;12.07;8.05;;;17.30;99.90;;;;;;4981680;28;20050;-92
2023/07/05 00:58:23;;;;;;;12.52;7.40;;;17.30;99.90;;;;;;4981880;28;20104;-93
2023/07/05 01:00:49;;;;;;;17.75;7.72;;;17.30;99.90;;;;;;4965444;28;20038;-94
2023/07/05 01:03:20;;;;;;;10.95;6.70;;;17.20;99.90;;;;;;4980902;28;20030;-94
2023/07/05 01:05:51;;;;;;;20.50;7.38;;;17.20;99.90;;;;;;4981887;28;20069;-95
2023/07/05 01:08:17;;;;;;;11.38;6.30;;;17.20;99.90;;;;;;4971885;28;20035;-93
2023/07/05 01:10:56;;;;;;;11.68;6.00;;;17.20;99.90;;;;;;4979518;28;20022;-94
2023/07/05 01:13:35;;;;;;;12.73;6.15;;;17.20;99.90;;;;;;4985446;28;20080;-90
2023/07/05 01:16:07;;;;;;;10.40;5.80;;;17.20;99.90;;;;;;4980800;28;20029;-91
2023/07/05 01:18:56;;;;;;;12.52;5.90;;;17.20;99.90;;;;;;4980441;28;20030;-91
2023/07/05 01:21:34;;;;;;;10.10;5.85;;;17.20;99.90;;;;;;4980487;28;20430;-91
2023/07/05 01:24:25;;;;;;;11.80;5.70;;;17.20;99.90;;;;;;4980459;28;20030;-90
2023/07/05 01:27:00;;;;;;;9.80;5.70;;;17.10;99.90;;;;;;4953168;28;20512;-91
2023/07/05 01:29:35;;;;;;;12.38;6.07;;;17.10;99.90;;;;;;4980636;28;20473;-91
2023/07/05 01:32:06;;;;;;;12.98;6.30;;;17.10;99.90;;;;;;4980104;28;20034;-92
2023/07/05 01:34:37;;;;;;;10.80;5.95;;;17.10;99.90;;;;;;4981213;28;20029;-92
2023/07/05 01:37:05;;;;;;;12.50;6.22;;;17.10;99.90;;;;;;4982191;28;20022;-94
2023/07/05 01:39:31;;;;;;;11.27;6.05;;;17.10;99.90;;;;;;4965380;28;20027;-92
2023/07/05 01:41:57;;;;;;;11.27;6.18;;;17.10;99.90;;;;;;4964267;28;20034;-92
2023/07/05 01:44:22;;;;;;;11.02;5.80;;;17.10;99.90;;;;;;4964389;28;20070;-91
2023/07/05 01:47:26;;;;;;;10.90;5.97;;;17.00;99.90;;;;;;4948407;28;20022;-91
2023/07/05 01:50:03;;;;;;;13.30;6.68;;;17.00;99.90;;;;;;4948666;28;20030;-91
2023/07/05 01:52:41;;;;;;;9.52;6.18;;;17.00;99.90;;;;;;4982171;28;20061;-94
2023/07/05 01:55:34;;;;;;;12.98;6.35;;;17.00;99.90;;;;;;4982576;28;20033;-95
2023/07/05 01:58:13;;;;;;;8.98;5.78;;;17.00;99.90;;;;;;5006205;28;20042;-95
2023/07/05 02:00:41;;;;;;;14.50;6.18;;;17.00;99.90;;;;;;5003484;28;20100;-95
2023/07/05 02:03:12;;;;;;;9.43;5.35;;;17.00;99.90;;;;;;4986225;28;20034;-96
2023/07/05 02:05:38;;;;;;;10.15;5.53;;;16.90;99.90;;;;;;5020156;28;20022;-94
2023/07/05 02:08:04;;;;;;;11.63;6.20;;;16.90;99.90;;;;;;4980004;28;20040;-92
2023/07/05 02:10:31;;;;;;;11.15;5.43;;;16.90;99.90;;;;;;4984392;28;20159;-94
2023/07/05 02:12:57;;;;;;;8.48;4.63;;;16.90;99.90;;;;;;4983431;28;20034;-93
2023/07/05 02:15:23;;;;;;;8.60;5.15;;;16.90;99.90;;;;;;5015845;28;20037;-95
2023/07/05 02:17:49;;;;;;;8.00;4.45;;;16.90;99.90;;;;;;4967463;28;20033;-95
2023/07/05 02:20:15;;;;;;;8.07;4.57;;;16.90;99.90;;;;;;4983034;28;20034;-94
2023/07/05 02:22:41;;;;;;;6.45;4.40;;;16.90;99.90;;;;;;4983500;28;20033;-94
2023/07/05 02:25:07;;;;;;;8.05;4.40;;;16.90;99.90;;;;;;4969721;28;20018;-94
2023/07/05 02:27:35;;;;;;;7.60;4.40;;;16.90;99.90;;;;;;4986124;28;20040;-94
2023/07/05 02:30:01;;;;;;;7.80;4.32;;;16.90;99.90;;;;;;4988237;28;20010;-93
2023/07/05 02:32:27;;;;;;;7.75;4.13;;;16.90;99.90;;;;;;5021163;28;20495;-94
2023/07/05 02:34:52;;;;;;;7.75;3.78;;;16.90;99.90;;;;;;5004493;28;20032;-93
2023/07/05 02:37:18;;;;;;;6.10;4.55;;;16.80;99.90;;;;;;4984744;28;20037;-91
2023/07/05 02:39:44;;;;;;;8.15;4.10;;;16.80;99.90;;;;;;4982814;28;20037;-90
2023/07/05 02:42:10;;;;;;;9.68;4.22;;;16.80;99.90;;;;;;4999129;28;20357;-91
2023/07/05 02:44:35;;;;;;;6.18;3.63;;;16.80;99.90;;;;;;4982380;28;20037;-91
2023/07/05 02:47:02;;;;;;;7.00;3.38;;;16.80;99.90;;;;;;4982691;28;20093;-91
2023/07/05 02:49:28;;;;;;;7.88;3.67;;;16.80;99.90;;;;;;5015863;28;20030;-91
2023/07/05 02:51:54;;;;;;;5.28;2.92;;;16.80;99.90;;;;;;4966220;28;20026;-90
2023/07/05 02:54:20;;;;;;;5.82;3.33;;;16.70;99.90;;;;;;4998514;28;20053;-91
2023/07/05 02:56:46;;;;;;;6.15;3.15;;;16.70;99.90;;;;;;4982302;28;20045;-92
2023/07/05 02:59:11;;;;;;;6.57;3.00;;;16.70;99.90;;;;;;5011071;28;20021;-94
2023/07/05 03:01:37;;;;;;;5.15;2.70;;;16.70;99.90;;;;;;4986988;28;20034;-93
2023/07/05 03:04:03;;;;;;;5.45;3.20;;;16.60;99.90;;;;;;4981964;28;20026;-91
2023/07/05 03:06:29;;;;;;;4.95;3.10;;;16.50;99.90;;;;;;4966201;28;20034;-91
2023/07/05 03:08:54;;;;;;;7.70;3.92;;;16.50;99.90;;;;;;4981595;28;20033;-90
2023/07/05 03:11:20;;;;;;;5.95;3.90;;;16.40;99.90;;;;;;4981559;28;20022;-91
2023/07/05 03:13:45;;;;;;;9.20;3.97;;;16.30;99.90;;;;;;4965772;28;20159;-91
2023/07/05 03:16:11;;;;;;;7.72;4.00;;;16.20;99.90;;;;;;5002433;28;20026;-90
2023/07/05 03:18:37;;;;;;;5.43;3.45;;;16.10;99.90;;;;;;4986523;28;20045;-90
2023/07/05 03:21:03;;;;;;;5.55;3.40;;;15.90;99.90;;;;;;5002232;28;20116;-92
2023/07/05 03:23:28;;;;;;;5.88;3.00;;;15.90;99.90;;;;;;4971385;28;20696;-91
2023/07/05 03:25:59;;;;;;;4.88;3.08;;;15.70;99.90;;;;;;4971805;28;20030;-93
2023/07/05 03:28:28;;;;;;;7.18;3.70;;;15.60;99.90;;;;;;5020013;28;20018;-91
2023/07/05 03:31:08;;;;;;;9.70;3.83;;;15.50;99.90;;;;;;5019790;28;20022;-91
2023/07/05 03:33:34;;;;;;;8.93;3.88;;;15.50;99.90;;;;;;5002540;28;20057;-91
2023/07/05 03:36:03;;;;;;;5.70;3.63;;;15.40;99.90;;;;;;4987003;28;20079;-91
2023/07/05 03:38:31;;;;;;;5.95;3.42;;;15.40;99.90;;;;;;5020239;28;20021;-91
2023/07/05 03:41:03;;;;;;;5.50;3.22;;;15.40;99.90;;;;;;4989163;28;20030;-89
2023/07/05 03:43:30;;;;;;;5.68;3.88;;;15.40;99.90;;;;;;5017718;28;20037;-91
2023/07/05 03:46:00;;;;;;;6.43;3.47;;;15.30;99.90;;;;;;4985928;28;20025;-89
2023/07/05 03:48:28;;;;;;;8.63;3.80;;;15.30;99.90;;;;;;5018352;28;20052;-90
2023/07/05 03:50:57;;;;;;;5.88;3.22;;;15.20;99.90;;;;;;4985757;28;20030;-90
2023/07/05 03:53:24;;;;;;;8.07;3.65;;;15.20;99.90;;;;;;5021256;28;20481;-89
2023/07/05 03:55:50;;;;;;;6.85;3.53;;;15.10;99.90;;;;;;5017104;28;20081;-89
2023/07/05 03:58:15;;;;;;;6.32;3.20;;;15.10;99.90;;;;;;4985449;28;20037;-90
2023/07/05 04:00:41;;;;;;;6.80;3.35;;;15.10;99.90;;;;;;4986038;28;20112;-90
2023/07/05 04:03:07;;;;;;;6.20;3.45;;;15.00;99.90;;;;;;4985543;28;20381;-90
2023/07/05 04:05:33;;;;;;;7.53;3.10;;;15.00;99.90;;;;;;4969394;28;20026;-90
2023/07/05 04:07:59;;;;;;;6.00;3.20;;;15.00;99.90;;;;;;4989874;28;20400;-89
2023/07/05 04:10:25;;;;;;;7.78;3.83;;;14.90;99.90;;;;;;4985144;28;20018;-90
2023/07/05 04:12:50;;;;;;;6.03;3.50;;;14.90;99.90;;;;;;4984351;28;20121;-89
2023/07/05 04:15:16;;;;;;;7.47;3.60;;;14.80;99.90;;;;;;5000756;28;20488;-88
2023/07/05 04:17:42;;;;;;;7.55;3.72;;;14.90;99.90;;;;;;4984811;28;20029;-90
2023/07/05 04:20:08;;;;;;;10.70;3.65;;;14.80;99.90;;;;;;4984654;28;20499;-89
2023/07/05 04:22:35;;;;;;;6.93;3.25;;;14.80;99.90;;;;;;4986116;28;20076;-91
2023/07/05 04:25:02;;;;;;;9.88;3.85;;;14.70;99.90;;;;;;4986462;28;20049;-91
2023/07/05 04:27:27;;;;;;;7.80;3.75;;;14.70;99.90;;;;;;4985436;28;20122;-91
2023/07/05 04:29:53;;;;;;;8.63;3.78;;;14.70;99.90;;;;;;4985983;28;20053;-91
2023/07/05 04:32:19;;;;;;;7.13;3.85;;;14.70;99.90;;;;;;4985880;28;20026;-90
2023/07/05 04:34:44;;;;;;;8.35;3.75;;;14.70;99.90;;;;;;4969671;28;20041;-92
2023/07/05 04:37:10;;;;;;;6.78;3.60;;;14.70;99.90;;;;;;4970216;28;20178;-91
2023/07/05 04:39:36;;;;;;;7.22;4.25;;;14.70;99.90;;;;;;5000926;28;20029;-88
2023/07/05 04:42:02;;;;;;;10.43;3.95;;;14.70;99.90;;;;;;4984686;28;20049;-89
2023/07/05 04:44:27;;;;;;;7.80;3.88;;;14.70;99.90;;;;;;4983524;28;20076;-90
2023/07/05 04:46:53;;;;;;;9.18;4.53;;;14.70;99.90;;;;;;4984280;28;20147;-90
2023/07/05 04:49:19;;;;;;;8.90;3.90;;;14.70;99.90;;;;;;4968052;28;20149;-90
2023/07/05 04:51:44;;;;;;;7.60;4.10;;;14.70;99.90;;;;;;4968417;28;20028;-90
2023/07/05 04:54:10;;;;;;;8.13;4.55;;;14.70;99.90;;;;;;4968007;28;20493;-90
2023/07/05 04:56:36;;;;;;;8.52;4.70;;;14.70;99.90;;;;;;4967693;28;20053;-89
2023/07/05 04:59:02;;;;;;;6.93;3.88;;;14.80;99.90;;;;;;4999843;28;20058;-89
2023/07/05 05:01:27;;;;;;;6.53;4.05;;;14.80;99.90;;;;;;4968169;28;20026;-89
2023/07/05 05:03:53;;;;;;;8.13;4.20;;;14.80;99.90;;;;;;4969838;28;20040;-90
2023/07/05 05:06:19;;;;;;;6.53;3.75;;;14.80;99.90;;;;;;5001248;28;20034;-89
2023/07/05 05:08:47;;;;;;;7.00;3.88;;;14.80;99.90;;;;;;4985230;28;20477;-89
2023/07/05 05:11:13;;;;;;;10.95;4.35;;;14.80;99.90;;;;;;4967815;28;20045;-91
2023/07/05 05:13:38;;;;;;;8.18;4.13;;;14.80;99.90;;;;;;4984413;28;20034;-91
2023/07/05 05:16:04;;;;;;;10.82;4.13;;;14.90;99.90;;;;;;4987272;28;20026;-89
2023/07/05 05:18:31;;;;;;;8.48;3.85;;;14.90;99.90;;;;;;5017969;28;20045;-91
2023/07/05 05:20:58;;;;;;;7.95;4.22;;;14.90;99.90;;;;;;4984803;28;20492;-91
2023/07/05 05:23:24;;;;;;;8.82;4.10;;;14.90;99.90;;;;;;4986000;28;20033;-91
2023/07/05 05:25:50;;;;;;;8.40;4.57;;;14.90;99.90;;;;;;5018482;28;20159;-90
2023/07/05 05:28:18;;;;;;;8.65;4.55;;;15.00;99.90;;;;;;5019095;28;20076;-91
2023/07/05 05:30:44;;;;;;;6.43;3.53;;;14.90;99.90;;;;;;4990131;28;20066;-92
2023/07/05 05:33:11;;;;;;;15.63;4.43;;;15.00;99.90;;;;;;5004732;28;20021;-91
2023/07/05 05:35:45;;;;;;;8.63;4.10;;;15.00;99.90;;;;;;5002224;28;20022;-90
2023/07/05 05:38:10;;;;;;;8.18;3.88;;;15.00;99.90;;;;;;4988763;28;20026;-88
2023/07/05 05:40:36;;;;;;;8.18;3.72;;;15.10;99.90;;;;;;4984559;28;20358;-90
2023/07/05 05:43:02;;;;;;;8.32;4.28;;;15.10;99.90;;;;;;4969027;28;20037;-89
2023/07/05 05:45:27;;;;;;;9.20;3.92;;;15.10;99.90;;;;;;4967383;28;20026;-91
2023/07/05 05:47:53;;;;;;;10.57;4.18;;;15.10;99.90;;;;;;4994631;28;20032;-89
2023/07/05 05:50:22;;;;;;;8.48;3.90;;;15.10;99.90;;;;;;4986814;28;20053;-91
2023/07/05 05:52:50;;;;;;;9.40;4.22;;;15.10;99.90;;;;;;4984493;28;20026;-92
2023/07/05 05:55:16;;;;;;;7.20;3.90;;;15.10;99.90;;;;;;4991449;28;20028;-92
2023/07/05 05:57:42;;;;;;;10.75;3.90;;;15.20;99.90;;;;;;4997264;28;20037;-90
2023/07/05 06:00:09;;;;;;;8.30;3.67;;;15.10;99.90;;;;;;4966564;28;20022;-89
2023/07/05 06:02:36;;;;;;;8.27;3.65;;;15.20;99.90;;;;;;4964377;28;20113;-91
2023/07/05 06:05:03;;;;;;;10.07;3.85;;;15.20;99.90;;;;;;4980598;28;20027;-90
2023/07/05 06:07:29;;;;;;;6.13;3.13;;;15.20;99.90;;;;;;4949416;28;20023;-91
2023/07/05 06:09:55;;;;;;;7.10;3.50;;;15.20;99.90;;;;;;4980242;28;20030;-92
2023/07/05 06:12:21;;;;;;;7.25;3.63;;;15.10;99.90;;;;;;4964032;28;20059;-92
2023/07/05 06:14:46;;;;;;;6.80;3.55;;;15.10;99.90;;;;;;4949026;28;20030;-91
2023/07/05 06:17:12;;;;;;;6.38;3.50;;;15.10;99.90;;;;;;4963875;28;20058;-90
2023/07/05 06:19:38;;;;;;;9.52;3.75;;;15.10;99.90;;;;;;4979402;28;20034;-91
2023/07/05 06:22:04;;;;;;;8.60;3.67;;;15.00;99.90;;;;;;4983109;28;20038;-92
2023/07/05 06:24:31;;;;;;;9.00;3.45;;;15.10;99.90;;;;;;4971188;28;20031;-91
2023/07/05 06:27:01;;;;;;;8.32;3.13;;;15.10;99.90;;;;;;4969891;28;20060;-92
2023/07/05 06:29:26;;;;;;;10.00;3.50;;;15.10;99.90;;;;;;5000559;28;20026;-92
2023/07/05 06:31:52;;;;;;;8.85;3.22;;;15.10;99.90;;;;;;4986898;28;20029;-91
2023/07/05 06:34:18;;;;;;;6.30;3.30;;;15.10;99.90;;;;;;4989218;28;20068;-92
2023/07/05 06:36:44;;;;;;;7.18;3.63;;;15.10;99.90;;;;;;4983532;28;20026;-93
2023/07/05 06:39:09;;;;;;;5.20;3.03;;;15.10;99.90;;;;;;4983083;28;20025;-91
2023/07/05 06:41:35;;;;;;;5.60;3.38;;;15.10;99.90;;;;;;5000113;28;20076;-91
2023/07/05 06:44:01;;;;;;;7.78;3.00;;;15.00;99.90;;;;;;4984312;28;20033;-92
2023/07/05 06:46:27;;;;;;;5.97;3.20;;;15.00;99.90;;;;;;4966994;28;20023;-92
2023/07/05 06:48:53;;;;;;;8.15;3.35;;;15.00;99.90;;;;;;4961025;28;20037;-91
2023/07/05 06:51:18;;;;;;;5.38;2.85;;;15.00;99.90;;;;;;4963423;28;20500;-94
2023/07/05 06:53:44;;;;;;;5.20;2.95;;;14.90;99.90;;;;;;4979780;28;20061;-92
2023/07/05 06:56:10;;;;;;;4.53;2.55;;;14.80;99.90;;;;;;4979467;28;20485;-93
2023/07/05 06:58:39;;;;;;;4.32;2.58;;;14.80;99.90;;;;;;4982138;28;20473;-92
2023/07/05 07:01:05;;;;;;;5.22;3.00;;;14.80;99.90;;;;;;4998718;28;20481;-94
2023/07/05 07:03:31;;;;;;;4.57;2.70;;;14.80;99.90;;;;;;4978904;28;20045;-93
2023/07/05 07:05:58;;;;;;;7.43;2.83;;;14.80;99.90;;;;;;4963255;28;20018;-93
2023/07/05 07:08:31;;;;;;;5.75;2.83;;;14.80;99.90;;;;;;4992910;28;20026;-90
2023/07/05 07:11:03;;;;;;;4.78;2.60;;;14.70;99.90;;;;;;4997699;28;20018;-91
2023/07/05 07:13:29;;;;;;;6.10;2.90;;;14.70;99.90;;;;;;4998031;28;20029;-90
2023/07/05 07:16:15;;;;;;;8.57;2.80;;;14.70;99.90;;;;;;4998358;28;20079;-88
2023/07/05 07:18:49;;;;;;;7.65;2.85;;;14.60;99.90;;;;;;4998922;28;20034;-92
2023/07/05 07:21:16;;;;;;;5.65;2.33;;;14.50;99.90;;;;;;4997904;28;20053;-93
2023/07/05 07:23:45;;;;;;;3.63;1.77;;;14.40;99.90;;;;;;4997988;28;20547;-92
2023/07/05 07:26:16;;;;;;;2.80;1.80;;;14.30;99.90;;;;;;4983497;28;20026;-95
2023/07/05 07:28:46;;;;;;;6.57;2.40;;;14.30;99.90;;;;;;5000546;28;20045;-94
2023/07/05 07:31:20;;;;;;;3.97;1.80;;;14.30;99.90;;;;;;5001410;28;20018;-95
2023/07/05 07:33:47;;;;;;;4.28;1.50;;;14.30;99.90;;;;;;5003164;28;20026;-93
2023/07/05 07:36:16;;;;;;;4.07;1.60;;;14.30;99.90;;;;;;4987379;28;20030;-93
2023/07/05 07:38:42;;;;;;;4.72;1.58;;;14.20;99.90;;;;;;5002635;28;20068;-93
2023/07/05 07:41:18;;;;;;;3.97;1.90;;;14.10;99.90;;;;;;4988461;28;20048;-92
2023/07/05 07:43:44;;;;;;;3.92;1.73;;;14.10;99.90;;;;;;4982312;28;20037;-94
2023/07/05 07:46:14;;;;;;;3.70;1.55;;;14.10;99.90;;;;;;4983091;28;20045;-92
2023/07/05 07:48:41;;;;;;;3.33;1.40;;;14.10;99.90;;;;;;4998053;28;20022;-92
2023/07/05 07:51:09;;;;;;;4.00;1.48;;;14.10;99.90;;;;;;4983188;28;20048;-93
2023/07/05 07:53:35;;;;;;;7.07;2.00;;;14.10;99.90;;;;;;4999788;28;20052;-92
2023/07/05 07:56:08;;;;;;;5.72;2.47;;;14.20;99.90;;;;;;4982511;28;20505;-94
2023/07/05 07:58:34;;;;;;;8.95;2.67;;;14.10;99.90;;;;;;4998518;28;20026;-90
2023/07/05 08:01:13;;;;;;;10.65;3.03;;;14.20;99.90;;;;;;4967096;28;20049;-92
2023/07/05 08:03:39;;;;;;;7.35;2.75;;;14.20;99.90;;;;;;5002257;28;20469;-91
2023/07/05 08:06:06;;;;;;;12.05;3.25;;;14.20;99.90;;;;;;4986288;28;20084;-92
2023/07/05 08:08:33;;;;;;;8.48;2.80;;;14.10;99.90;;;;;;5001730;28;20028;-92
2023/07/05 08:10:58;;;;;;;7.20;2.95;;;14.10;99.90;;;;;;5001570;28;20452;-94
2023/07/05 08:13:24;;;;;;;10.95;3.50;;;14.10;99.90;;;;;;5003674;28;20060;-93
2023/07/05 08:15:50;;;;;;;8.90;3.45;;;14.20;99.90;;;;;;5001837;28;20030;-91
2023/07/05 08:18:15;;;;;;;7.25;3.00;;;14.20;99.90;;;;;;4984206;28;20488;-91
2023/07/05 08:20:41;;;;;;;8.15;2.97;;;14.10;99.90;;;;;;4969981;28;20026;-91
2023/07/05 08:23:07;;;;;;;7.85;3.20;;;14.10;99.90;;;;;;4968504;28;20053;-90
2023/07/05 08:25:33;;;;;;;7.07;2.67;;;14.10;99.90;;;;;;5000731;28;20026;-91
2023/07/05 08:28:00;;;;;;;8.13;2.95;;;14.10;99.90;;;;;;5001004;28;20029;-90
2023/07/05 08:30:26;;;;;;;8.35;3.17;;;14.10;99.90;;;;;;4984932;28;20033;-91
2023/07/05 08:32:53;;;;;;;9.57;3.60;;;14.10;99.90;;;;;;4968998;28;20022;-91
2023/07/05 08:35:19;;;;;;;8.68;3.45;;;14.10;99.90;;;;;;5002421;28;20025;-91
2023/07/05 08:37:48;;;;;;;10.55;3.88;;;14.10;99.90;;;;;;4970734;28;20033;-91
2023/07/05 08:40:15;;;;;;;8.57;4.30;;;14.10;99.90;;;;;;4986534;28;20033;-92
2023/07/05 08:43:03;;;;;;;11.60;4.38;;;14.20;99.90;;;;;;4985836;28;20022;-90
2023/07/05 08:45:37;;;;;;;10.07;4.22;;;14.20;99.90;;;;;;5003006;28;20072;-91
2023/07/05 08:48:05;;;;;;;9.18;4.40;;;14.20;99.90;;;;;;5002527;28;20546;-91
2023/07/05 08:50:40;;;;;;;8.55;4.35;;;14.30;99.90;;;;;;4984562;28;20027;-92
2023/07/05 08:53:19;;;;;;;12.10;4.70;;;14.30;99.90;;;;;;4983191;28;20023;-92
2023/07/05 08:56:13;;;;;;;7.82;4.80;;;14.30;99.90;;;;;;4993486;28;20125;-90
2023/07/05 08:58:56;;;;;;;8.27;4.68;;;14.40;99.90;;;;;;4983546;28;20549;-92
2023/07/05 09:01:36;;;;;;;13.85;5.53;;;14.50;99.90;;;;;;4983138;28;20121;-91
2023/07/05 09:04:02;;;;;;;8.27;4.93;;;14.60;99.90;;;;;;4982883;28;20030;-91
2023/07/05 09:06:38;;;;;;;8.45;4.82;;;14.70;99.90;;;;;;4969108;28;20061;-90
2023/07/05 09:09:09;;;;;;;9.80;4.63;;;14.90;99.90;;;;;;4985543;28;20418;-93
2023/07/05 09:11:54;;;;;;;10.07;4.32;;;15.00;99.90;;;;;;4982681;28;20089;-92
2023/07/05 09:14:27;;;;;;;12.52;4.40;;;15.10;99.90;;;;;;4984720;28;20045;-91
2023/07/05 09:17:04;;;;;;;10.32;4.18;;;15.10;99.90;;;;;;4985653;28;20041;-90
2023/07/05 09:20:13;;;;;;;15.43;4.47;;;15.20;99.90;;;;;;4988928;28;20045;-91
2023/07/05 09:22:40;;;;;;;9.73;3.80;;;15.30;99.90;;;;;;4984662;28;20041;-92
2023/07/05 09:25:12;;;;;;;8.52;4.10;;;15.40;99.90;;;;;;4965556;28;20097;-90
2023/07/05 09:27:43;;;;;;;9.88;3.08;;;15.50;99.90;;;;;;4981730;28;20049;-92
2023/07/05 09:30:15;;;;;;;9.73;3.78;;;15.60;99.90;;;;;;4982586;28;20042;-89
2023/07/05 09:32:44;;;;;;;8.85;3.35;;;15.70;99.90;;;;;;4990998;28;20022;-90
2023/07/05 09:35:18;;;;;;;11.05;3.78;;;15.80;99.90;;;;;;4981626;28;20033;-91
2023/07/05 09:38:22;;;;;;;8.57;3.40;;;15.80;99.90;;;;;;4982509;28;20462;-91
2023/07/05 09:40:58;;;;;;;9.38;3.22;;;15.90;99.90;;;;;;4932442;28;20130;-89
2023/07/05 09:43:29;;;;;;;11.48;3.20;;;15.90;99.90;;;;;;4980891;28;20023;-91
2023/07/05 09:45:56;;;;;;;11.73;3.28;;;16.00;99.90;;;;;;4981196;28;20469;-91
2023/07/05 09:48:22;;;;;;;8.85;3.08;;;16.00;99.90;;;;;;4982093;28;20054;-90
2023/07/05 09:50:52;;;;;;;10.32;3.55;;;16.00;99.90;;;;;;4983460;28;20026;-92
2023/07/05 09:53:40;;;;;;;9.55;3.22;;;16.10;99.90;;;;;;4983919;28;20057;-89
2023/07/05 09:56:12;;;;;;;8.95;2.95;;;16.10;99.90;;;;;;4999586;28;20046;-89
2023/07/05 09:58:39;;;;;;;10.60;3.25;;;16.10;99.90;;;;;;4999646;28;20061;-91
2023/07/05 10:01:22;;;;;;;15.40;4.03;;;16.10;99.90;;;;;;5000400;28;20086;-91
2023/07/05 10:03:57;;;;;;;6.88;2.72;;;16.10;99.90;;;;;;5018111;28;20026;-91
2023/07/05 10:06:27;;;;;;;13.02;3.38;;;16.00;99.90;;;;;;5000055;28;20385;-91
2023/07/05 10:08:54;;;;;;;12.57;3.55;;;16.00;99.90;;;;;;5000797;28;20083;-94
2023/07/05 10:11:27;;;;;;;12.00;2.92;;;16.00;99.90;;;;;;5001019;28;20116;-90
2023/07/05 10:14:10;;;;;;;13.15;3.25;;;15.90;99.90;;;;;;4999415;28;20026;-90
2023/07/05 10:16:48;;;;;;;9.95;2.92;;;15.90;99.90;;;;;;4998749;28;20072;-90
2023/07/05 10:19:25;;;;;;;8.35;2.55;;;15.80;99.90;;;;;;4998936;28;20061;-89
2023/07/05 10:21:54;;;;;;;10.93;3.08;;;15.80;99.90;;;;;;4999410;28;20381;-94
2023/07/05 10:24:20;;;;;;;13.65;2.40;;;15.70;99.90;;;;;;4998836;28;20034;-93
2023/07/05 10:27:12;;;;;;;13.48;2.80;;;15.70;99.90;;;;;;4999519;28;20022;-93
2023/07/05 10:29:40;;;;;;;9.95;2.53;;;15.70;99.90;;;;;;5001060;28;20022;-92
2023/07/05 10:32:18;;;;;;;7.18;2.67;;;15.60;99.90;;;;;;5004618;28;20016;-96
2023/07/05 10:34:44;;;;;;;8.05;2.35;;;15.70;99.90;;;;;;5003557;28;20094;-94
2023/07/05 10:37:35;;;;;;;10.07;2.90;;;15.70;99.90;;;;;;4968116;28;20100;-92
2023/07/05 10:40:09;;;;;;;;;;;15.80;99.90;;;;;;4991158;28;20073;-92
2023/07/05 10:42:41;;;;;;;9.38;2.33;;;15.80;99.90;;;;;;4999812;28;19912;-94
2023/07/05 10:45:14;;;;;;;10.10;2.17;;;15.80;99.90;;;;;;4988183;28;20038;-91
2023/07/05 10:47:41;;;;;;;10.60;2.17;;;15.90;99.90;;;;;;5020312;28;20048;-93
2023/07/05 10:50:09;;;;;;;5.97;2.40;;;16.00;99.90;;;;;;5004186;28;20026;-92
2023/07/05 10:52:36;;;;;;;9.85;2.35;;;16.10;99.90;;;;;;5018943;28;20051;-93
2023/07/05 10:55:18;;;;;;;8.93;1.70;;;16.20;99.90;;;;;;5005797;28;20022;-92
2023/07/05 10:57:59;;;;;;;7.90;2.08;;;16.30;99.90;;;;;;5001596;28;20036;-92
2023/07/05 11:00:39;;;;;;;10.45;2.40;;;16.40;99.90;;;;;;5000148;28;20034;-89
2023/07/05 11:03:21;;;;;;;7.90;1.67;;;16.50;99.90;;;;;;4999096;28;20422;-93
2023/07/05 11:05:49;;;;;;;9.98;2.72;;;16.60;99.90;;;;;;5000267;28;20420;-93
2023/07/05 11:08:37;;;;;;;9.75;1.83;;;16.70;99.90;;;;;;4999200;28;20021;-88
2023/07/05 11:11:24;;;;;;;9.05;2.22;;;16.90;99.90;;;;;;4997276;28;20022;-88
2023/07/05 11:13:52;;;;;;;10.60;2.13;;;17.10;99.90;;;;;;5015329;28;20033;-88
2023/07/05 11:16:24;;;;;;;6.75;1.70;;;17.30;99.90;;;;;;4998512;28;20105;-90
2023/07/05 11:19:00;;;;;;;11.50;1.70;;;17.40;99.90;;;;;;4994071;28;20030;-92
2023/07/05 11:21:52;;;;;;;8.80;2.20;;;17.60;99.90;;;;;;4984848;28;20113;-95
2023/07/05 11:24:36;;;;;;;4.93;1.65;;;17.80;99.90;;;;;;4997611;28;20133;-93
2023/07/05 11:27:25;;;;;;;6.88;1.58;;;18.00;99.90;;;;;;4981446;28;20030;-92
2023/07/05 11:29:54;;;;;;;10.63;2.33;;;18.10;99.90;;;;;;4980618;28;20052;-91
2023/07/05 11:32:28;;;;;;;9.35;1.92;;;18.20;99.90;;;;;;4966117;28;20482;-91
2023/07/05 11:34:55;;;;;;;4.97;1.48;;;18.30;99.90;;;;;;4983332;28;20055;-93
2023/07/05 11:37:20;;;;;;;7.40;1.80;;;18.30;99.90;;;;;;4986003;28;20090;-92
2023/07/05 11:39:48;;;;;;;7.82;1.70;;;18.40;99.90;;;;;;4987033;28;20045;-92
2023/07/05 11:42:17;;;;;;;11.18;2.20;;;18.50;99.90;;;;;;4968370;28;20409;-87
2023/07/05 11:45:03;;;;;;;8.77;2.05;;;18.50;99.90;;;;;;4999000;28;20585;-87
2023/07/05 11:47:35;;;;;;;9.77;2.20;;;18.60;99.90;;;;;;4987950;28;20027;-87
2023/07/05 11:50:08;;;;;;;6.78;2.10;;;18.70;99.90;;;;;;4987592;28;20090;-89
2023/07/05 11:52:37;;;;;;;6.35;1.70;;;18.80;99.90;;;;;;4969758;28;20041;-91
2023/07/05 11:55:25;;;;;;;6.35;2.15;;;18.90;99.90;;;;;;4983353;28;20066;-93
2023/07/05 11:57:54;;;;;;;7.75;1.90;;;18.90;99.90;;;;;;4984412;28;20053;-92
2023/07/05 12:00:34;;;;;;;7.28;2.25;;;18.90;99.90;;;;;;4983437;28;20046;-92
2023/07/05 12:03:28;;;;;;;7.85;2.45;;;18.90;99.90;;;;;;4982107;28;20041;-90
2023/07/05 12:06:12;;;;;;;5.78;1.98;;;19.00;99.90;;;;;;4989915;28;20066;-90
2023/07/05 12:08:45;;;;;;;12.10;2.10;;;19.00;99.90;;;;;;4982080;28;20097;-92
2023/07/05 12:11:14;;;;;;;6.38;1.83;;;19.00;99.90;;;;;;4982524;28;20018;-92
2023/07/05 12:13:41;;;;;;;7.15;2.13;;;19.00;99.90;;;;;;4981556;28;20022;-91
2023/07/05 12:16:13;;;;;;;8.68;2.13;;;19.10;99.90;;;;;;4965187;28;20026;-90
2023/07/05 12:18:40;;;;;;;11.23;2.47;;;19.00;99.30;;;;;;4980882;28;20069;-89
2023/07/05 12:21:06;;;;;;;9.75;2.03;;;19.00;99.80;;;;;;4977689;28;20027;-90
2023/07/05 12:23:35;;;;;;;8.90;2.35;;;18.90;99.90;;;;;;4982841;28;20026;-91
2023/07/05 12:26:04;;;;;;;7.03;1.80;;;18.90;99.80;;;;;;4981997;28;20014;-89
2023/07/05 12:28:32;;;;;;;7.30;2.47;;;18.80;99.50;;;;;;4966229;28;20026;-92
2023/07/05 12:31:21;;;;;;;8.40;2.15;;;18.70;99.90;;;;;;4982518;28;20023;-92
2023/07/05 12:34:00;;;;;;;5.80;2.33;;;18.60;99.90;;;;;;4983760;28;20461;-91
2023/07/05 12:36:26;;;;;;;10.30;2.30;;;18.50;99.90;;;;;;4991472;28;20022;-90
2023/07/05 12:39:06;;;;;;;7.82;2.35;;;18.50;99.90;;;;;;4982240;28;20023;-91
2023/07/05 12:41:32;;;;;;;8.15;2.33;;;18.40;99.90;;;;;;4994242;28;20030;-90
2023/07/05 12:44:14;;;;;;;12.02;3.15;;;18.40;99.90;;;;;;4965151;28;20041;-90
2023/07/05 12:46:41;;;;;;;5.65;1.85;;;18.40;99.90;;;;;;4980917;28;20088;-90
2023/07/05 12:49:20;;;;;;;6.93;2.47;;;18.40;99.90;;;;;;4980837;28;20034;-90
2023/07/05 12:51:54;;;;;;;6.93;2.13;;;18.50;99.90;;;;;;4981980;28;20535;-89
2023/07/05 12:54:22;;;;;;;9.00;2.67;;;18.50;99.90;;;;;;4980630;28;20064;-88
2023/07/05 12:56:49;;;;;;;5.47;2.30;;;18.50;99.90;;;;;;4965822;28;20578;-89
2023/07/05 12:59:27;;;;;;;12.05;2.67;;;18.50;99.90;;;;;;4964699;28;20027;-89